sensor_id;sensor_type;location;lat;lon;timestamp;P1;durP1;ratioP1;P2;durP2;ratioP2
21927;SDS011;11128;51.096;17.190;2023-02-01T00:00:41;2.08;;;0.82;;
21927;SDS011;11128;51.096;17.190;2023-02-01T00:05:42;1.38;;;0.60;;
21927;SDS011;11128;51.096;17.190;2023-02-01T00:10:43;1.80;;;0.70;;
21927;SDS011;11128;51.096;17.190;2023-02-01T00:15:44;3.97;;;0.57;;
21927;SDS011;11128;51.096;17.190;2023-02-01T00:20:46;4.40;;;0.90;;
21927;SDS011;11128;51.096;17.190;2023-02-01T00:25:47;2.10;;;0.65;;
21927;SDS011;11128;51.096;17.190;2023-02-01T00:30:55;3.70;;;0.70;;
21927;SDS011;11128;51.096;17.190;2023-02-01T00:36:02;3.35;;;1.10;;
21927;SDS011;11128;51.096;17.190;2023-02-01T00:41:05;8.10;;;0.95;;
21927;SDS011;11128;51.096;17.190;2023-02-01T00:46:17;7.25;;;1.27;;
21927;SDS011;11128;51.096;17.190;2023-02-01T00:51:20;6.55;;;1.40;;
21927;SDS011;11128;51.096;17.190;2023-02-01T00:56:23;4.32;;;1.52;;
21927;SDS011;11128;51.096;17.190;2023-02-01T01:01:26;10.85;;;1.50;;
21927;SDS011;11128;51.096;17.190;2023-02-01T01:06:29;6.30;;;1.55;;
21927;SDS011;11128;51.096;17.190;2023-02-01T01:11:33;2.20;;;1.00;;
21927;SDS011;11128;51.096;17.190;2023-02-01T01:16:36;3.40;;;0.95;;
21927;SDS011;11128;51.096;17.190;2023-02-01T01:21:37;3.10;;;1.25;;
21927;SDS011;11128;51.096;17.190;2023-02-01T01:26:39;5.28;;;1.40;;
21927;SDS011;11128;51.096;17.190;2023-02-01T01:31:40;4.40;;;1.50;;
21927;SDS011;11128;51.096;17.190;2023-02-01T01:36:41;2.50;;;1.45;;
21927;SDS011;11128;51.096;17.190;2023-02-01T01:41:42;5.85;;;1.40;;
21927;SDS011;11128;51.096;17.190;2023-02-01T01:46:43;7.35;;;1.58;;
21927;SDS011;11128;51.096;17.190;2023-02-01T01:51:49;3.28;;;0.80;;
21927;SDS011;11128;51.096;17.190;2023-02-01T01:56:58;4.03;;;0.93;;
21927;SDS011;11128;51.096;17.190;2023-02-01T02:02:04;4.50;;;0.90;;
21927;SDS011;11128;51.096;17.190;2023-02-01T02:07:08;4.30;;;1.20;;
21927;SDS011;11128;51.096;17.190;2023-02-01T02:12:14;5.43;;;1.17;;
21927;SDS011;11128;51.096;17.190;2023-02-01T02:50:32;4.85;;;1.58;;
21927;SDS011;11128;51.096;17.190;2023-02-01T02:55:55;7.20;;;1.60;;
21927;SDS011;11128;51.096;17.190;2023-02-01T03:06:36;8.07;;;1.90;;
21927;SDS011;11128;51.096;17.190;2023-02-01T03:11:38;5.60;;;1.55;;
21927;SDS011;11128;51.096;17.190;2023-02-01T03:17:02;8.55;;;1.60;;
21927;SDS011;11128;51.096;17.190;2023-02-01T03:22:14;9.93;;;2.50;;
21927;SDS011;11128;51.096;17.190;2023-02-01T03:27:27;4.28;;;1.70;;
21927;SDS011;11128;51.096;17.190;2023-02-01T03:32:34;6.18;;;1.30;;
21927;SDS011;11128;51.096;17.190;2023-02-01T03:38:00;11.75;;;2.08;;
21927;SDS011;11128;51.096;17.190;2023-02-01T03:43:17;7.78;;;2.15;;
21927;SDS011;11128;51.096;17.190;2023-02-01T03:48:22;10.13;;;1.95;;
21927;SDS011;11128;51.096;17.190;2023-02-01T03:53:24;9.40;;;2.85;;
21927;SDS011;11128;51.096;17.190;2023-02-01T03:58:27;6.65;;;1.60;;
21927;SDS011;11128;51.096;17.190;2023-02-01T04:03:28;5.75;;;1.67;;
21927;SDS011;11128;51.096;17.190;2023-02-01T04:08:30;6.57;;;1.80;;
21927;SDS011;11128;51.096;17.190;2023-02-01T04:13:31;10.02;;;1.92;;
21927;SDS011;11128;51.096;17.190;2023-02-01T04:18:32;7.80;;;1.85;;
21927;SDS011;11128;51.096;17.190;2023-02-01T04:23:33;6.43;;;1.77;;
21927;SDS011;11128;51.096;17.190;2023-02-01T04:28:35;11.27;;;1.63;;
21927;SDS011;11128;51.096;17.190;2023-02-01T04:33:36;7.63;;;1.42;;
21927;SDS011;11128;51.096;17.190;2023-02-01T04:38:37;5.63;;;1.80;;
21927;SDS011;11128;51.096;17.190;2023-02-01T04:43:38;4.53;;;1.77;;
21927;SDS011;11128;51.096;17.190;2023-02-01T04:48:40;6.10;;;1.70;;
21927;SDS011;11128;51.096;17.190;2023-02-01T04:53:41;9.85;;;2.00;;
21927;SDS011;11128;51.096;17.190;2023-02-01T04:58:42;8.48;;;1.95;;
21927;SDS011;11128;51.096;17.190;2023-02-01T05:03:44;4.63;;;2.00;;
21927;SDS011;11128;51.096;17.190;2023-02-01T05:08:45;6.85;;;1.83;;
21927;SDS011;11128;51.096;17.190;2023-02-01T05:13:46;7.82;;;1.58;;
21927;SDS011;11128;51.096;17.190;2023-02-01T05:18:50;8.43;;;1.65;;
21927;SDS011;11128;51.096;17.190;2023-02-01T05:23:52;7.22;;;1.58;;
21927;SDS011;11128;51.096;17.190;2023-02-01T05:29:12;7.33;;;1.47;;
21927;SDS011;11128;51.096;17.190;2023-02-01T05:34:14;6.70;;;2.20;;
21927;SDS011;11128;51.096;17.190;2023-02-01T05:39:15;9.57;;;2.22;;
21927;SDS011;11128;51.096;17.190;2023-02-01T05:44:17;4.72;;;1.70;;
21927;SDS011;11128;51.096;17.190;2023-02-01T05:49:18;9.07;;;1.65;;
21927;SDS011;11128;51.096;17.190;2023-02-01T05:54:19;9.68;;;2.28;;
21927;SDS011;11128;51.096;17.190;2023-02-01T05:59:23;6.80;;;1.77;;
21927;SDS011;11128;51.096;17.190;2023-02-01T06:04:24;8.90;;;2.20;;
21927;SDS011;11128;51.096;17.190;2023-02-01T06:09:25;10.48;;;3.80;;
21927;SDS011;11128;51.096;17.190;2023-02-01T06:14:28;13.30;;;3.15;;
21927;SDS011;11128;51.096;17.190;2023-02-01T06:19:30;8.05;;;2.30;;
21927;SDS011;11128;51.096;17.190;2023-02-01T06:24:32;11.32;;;1.98;;
21927;SDS011;11128;51.096;17.190;2023-02-01T06:29:33;9.07;;;1.85;;
21927;SDS011;11128;51.096;17.190;2023-02-01T06:34:34;9.23;;;3.40;;
21927;SDS011;11128;51.096;17.190;2023-02-01T06:39:35;7.82;;;3.30;;
21927;SDS011;11128;51.096;17.190;2023-02-01T06:44:36;6.13;;;1.45;;
21927;SDS011;11128;51.096;17.190;2023-02-01T06:49:38;13.73;;;3.50;;
21927;SDS011;11128;51.096;17.190;2023-02-01T06:54:41;11.88;;;2.53;;
21927;SDS011;11128;51.096;17.190;2023-02-01T06:59:42;9.40;;;2.80;;
21927;SDS011;11128;51.096;17.190;2023-02-01T07:04:43;8.70;;;2.65;;
21927;SDS011;11128;51.096;17.190;2023-02-01T07:09:45;9.57;;;2.78;;
21927;SDS011;11128;51.096;17.190;2023-02-01T07:14:46;8.10;;;1.65;;
21927;SDS011;11128;51.096;17.190;2023-02-01T07:19:47;11.05;;;2.67;;
21927;SDS011;11128;51.096;17.190;2023-02-01T07:24:49;7.38;;;2.25;;
21927;SDS011;11128;51.096;17.190;2023-02-01T07:29:50;12.23;;;2.40;;
21927;SDS011;11128;51.096;17.190;2023-02-01T07:34:51;8.98;;;1.75;;
21927;SDS011;11128;51.096;17.190;2023-02-01T07:39:52;6.97;;;2.03;;
21927;SDS011;11128;51.096;17.190;2023-02-01T07:44:54;9.88;;;2.67;;
21927;SDS011;11128;51.096;17.190;2023-02-01T07:49:55;11.80;;;3.17;;
21927;SDS011;11128;51.096;17.190;2023-02-01T07:54:56;5.03;;;1.92;;
21927;SDS011;11128;51.096;17.190;2023-02-01T07:59:58;8.13;;;2.72;;
21927;SDS011;11128;51.096;17.190;2023-02-01T08:05:17;9.80;;;2.20;;
21927;SDS011;11128;51.096;17.190;2023-02-01T08:10:19;6.95;;;2.30;;
21927;SDS011;11128;51.096;17.190;2023-02-01T08:15:20;7.43;;;2.35;;
21927;SDS011;11128;51.096;17.190;2023-02-01T08:20:21;12.05;;;2.88;;
21927;SDS011;11128;51.096;17.190;2023-02-01T08:25:23;11.05;;;2.42;;
21927;SDS011;11128;51.096;17.190;2023-02-01T08:30:25;11.45;;;2.80;;
21927;SDS011;11128;51.096;17.190;2023-02-01T08:35:28;8.98;;;2.53;;
21927;SDS011;11128;51.096;17.190;2023-02-01T08:40:29;7.78;;;1.75;;
21927;SDS011;11128;51.096;17.190;2023-02-01T08:45:31;9.10;;;2.70;;
21927;SDS011;11128;51.096;17.190;2023-02-01T08:50:32;8.38;;;2.67;;
21927;SDS011;11128;51.096;17.190;2023-02-01T08:55:34;13.35;;;2.47;;
21927;SDS011;11128;51.096;17.190;2023-02-01T09:00:35;11.93;;;3.03;;
21927;SDS011;11128;51.096;17.190;2023-02-01T09:05:36;6.93;;;2.50;;
21927;SDS011;11128;51.096;17.190;2023-02-01T09:10:38;8.50;;;1.92;;
21927;SDS011;11128;51.096;17.190;2023-02-01T09:15:39;8.07;;;2.33;;
21927;SDS011;11128;51.096;17.190;2023-02-01T09:20:40;10.10;;;2.40;;
21927;SDS011;11128;51.096;17.190;2023-02-01T09:25:42;7.85;;;2.15;;
21927;SDS011;11128;51.096;17.190;2023-02-01T09:30:43;13.95;;;3.45;;
21927;SDS011;11128;51.096;17.190;2023-02-01T09:35:44;13.40;;;3.80;;
21927;SDS011;11128;51.096;17.190;2023-02-01T09:40:46;5.82;;;2.33;;
21927;SDS011;11128;51.096;17.190;2023-02-01T09:51:20;8.55;;;1.90;;
21927;SDS011;11128;51.096;17.190;2023-02-01T09:56:35;6.43;;;1.63;;
21927;SDS011;11128;51.096;17.190;2023-02-01T10:01:42;4.40;;;1.70;;
21927;SDS011;11128;51.096;17.190;2023-02-01T10:22:43;7.35;;;2.25;;
21927;SDS011;11128;51.096;17.190;2023-02-01T10:28:10;6.93;;;1.67;;
21927;SDS011;11128;51.096;17.190;2023-02-01T10:33:26;6.35;;;2.00;;
21927;SDS011;11128;51.096;17.190;2023-02-01T10:38:32;6.30;;;2.15;;
21927;SDS011;11128;51.096;17.190;2023-02-01T10:43:34;13.38;;;2.30;;
21927;SDS011;11128;51.096;17.190;2023-02-01T10:48:36;6.15;;;2.47;;
21927;SDS011;11128;51.096;17.190;2023-02-01T10:58:44;7.63;;;1.98;;
21927;SDS011;11128;51.096;17.190;2023-02-01T11:03:58;5.03;;;2.17;;
21927;SDS011;11128;51.096;17.190;2023-02-01T11:14:16;6.93;;;2.40;;
21927;SDS011;11128;51.096;17.190;2023-02-01T11:19:18;9.57;;;2.30;;
21927;SDS011;11128;51.096;17.190;2023-02-01T11:24:27;5.03;;;2.47;;
21927;SDS011;11128;51.096;17.190;2023-02-01T11:29:35;5.93;;;2.38;;
21927;SDS011;11128;51.096;17.190;2023-02-01T11:34:44;7.07;;;2.30;;
21927;SDS011;11128;51.096;17.190;2023-02-01T11:39:53;5.22;;;2.05;;
21927;SDS011;11128;51.096;17.190;2023-02-01T11:50:34;6.05;;;1.80;;
21927;SDS011;11128;51.096;17.190;2023-02-01T11:55:42;3.78;;;2.33;;
21927;SDS011;11128;51.096;17.190;2023-02-01T12:01:10;3.15;;;1.52;;
21927;SDS011;11128;51.096;17.190;2023-02-01T12:32:48;5.32;;;2.30;;
21927;SDS011;11128;51.096;17.190;2023-02-01T12:43:58;2.35;;;1.63;;
21927;SDS011;11128;51.096;17.190;2023-02-01T12:49:13;5.40;;;1.67;;
21927;SDS011;11128;51.096;17.190;2023-02-01T12:54:32;5.63;;;1.63;;
21927;SDS011;11128;51.096;17.190;2023-02-01T12:59:48;4.45;;;2.15;;
21927;SDS011;11128;51.096;17.190;2023-02-01T13:10:18;3.53;;;1.77;;
21927;SDS011;11128;51.096;17.190;2023-02-01T13:15:51;7.53;;;2.20;;
21927;SDS011;11128;51.096;17.190;2023-02-01T13:21:08;2.85;;;1.58;;
21927;SDS011;11128;51.096;17.190;2023-02-01T13:26:13;3.40;;;2.30;;
21927;SDS011;11128;51.096;17.190;2023-02-01T13:46:43;5.18;;;2.10;;
21927;SDS011;11128;51.096;17.190;2023-02-01T13:51:48;5.90;;;2.40;;
21927;SDS011;11128;51.096;17.190;2023-02-01T13:56:52;4.03;;;2.00;;
21927;SDS011;11128;51.096;17.190;2023-02-01T14:01:54;3.55;;;1.63;;
21927;SDS011;11128;51.096;17.190;2023-02-01T14:06:55;6.22;;;1.83;;
21927;SDS011;11128;51.096;17.190;2023-02-01T14:11:57;3.30;;;2.08;;
21927;SDS011;11128;51.096;17.190;2023-02-01T14:22:00;2.80;;;1.65;;
21927;SDS011;11128;51.096;17.190;2023-02-01T14:27:25;3.58;;;1.98;;
21927;SDS011;11128;51.096;17.190;2023-02-01T14:32:33;3.53;;;1.50;;
21927;SDS011;11128;51.096;17.190;2023-02-01T14:37:38;4.00;;;1.52;;
21927;SDS011;11128;51.096;17.190;2023-02-01T15:08:43;7.68;;;2.78;;
21927;SDS011;11128;51.096;17.190;2023-02-01T15:13:50;6.35;;;2.88;;
21927;SDS011;11128;51.096;17.190;2023-02-01T15:19:07;13.48;;;4.40;;
21927;SDS011;11128;51.096;17.190;2023-02-01T15:24:12;12.43;;;4.18;;
21927;SDS011;11128;51.096;17.190;2023-02-01T15:29:15;6.65;;;2.53;;
21927;SDS011;11128;51.096;17.190;2023-02-01T15:34:17;6.68;;;2.90;;
21927;SDS011;11128;51.096;17.190;2023-02-01T15:39:21;9.73;;;4.45;;
21927;SDS011;11128;51.096;17.190;2023-02-01T15:44:39;10.15;;;2.58;;
21927;SDS011;11128;51.096;17.190;2023-02-01T15:49:43;10.07;;;3.00;;
21927;SDS011;11128;51.096;17.190;2023-02-01T15:54:48;8.75;;;4.10;;
21927;SDS011;11128;51.096;17.190;2023-02-01T15:59:53;13.38;;;5.03;;
21927;SDS011;11128;51.096;17.190;2023-02-01T16:04:55;6.50;;;2.40;;
21927;SDS011;11128;51.096;17.190;2023-02-01T16:09:58;4.18;;;2.03;;
21927;SDS011;11128;51.096;17.190;2023-02-01T16:15:06;5.53;;;1.98;;
21927;SDS011;11128;51.096;17.190;2023-02-01T16:20:08;4.88;;;2.20;;
21927;SDS011;11128;51.096;17.190;2023-02-01T16:25:10;5.32;;;1.83;;
21927;SDS011;11128;51.096;17.190;2023-02-01T16:30:11;3.72;;;2.08;;
21927;SDS011;11128;51.096;17.190;2023-02-01T16:35:19;4.25;;;1.40;;
21927;SDS011;11128;51.096;17.190;2023-02-01T16:40:24;5.18;;;1.90;;
21927;SDS011;11128;51.096;17.190;2023-02-01T16:45:25;6.53;;;1.90;;
21927;SDS011;11128;51.096;17.190;2023-02-01T16:50:27;2.33;;;1.67;;
21927;SDS011;11128;51.096;17.190;2023-02-01T16:55:28;7.57;;;1.77;;
21927;SDS011;11128;51.096;17.190;2023-02-01T17:00:29;4.68;;;2.03;;
21927;SDS011;11128;51.096;17.190;2023-02-01T17:05:34;3.45;;;2.05;;
21927;SDS011;11128;51.096;17.190;2023-02-01T17:10:35;4.72;;;2.40;;
21927;SDS011;11128;51.096;17.190;2023-02-01T17:15:36;8.32;;;3.03;;
21927;SDS011;11128;51.096;17.190;2023-02-01T17:20:38;6.38;;;3.00;;
21927;SDS011;11128;51.096;17.190;2023-02-01T17:25:39;6.47;;;2.85;;
21927;SDS011;11128;51.096;17.190;2023-02-01T17:30:41;6.03;;;3.25;;
21927;SDS011;11128;51.096;17.190;2023-02-01T17:35:42;8.30;;;3.53;;
21927;SDS011;11128;51.096;17.190;2023-02-01T17:40:43;11.68;;;3.50;;
21927;SDS011;11128;51.096;17.190;2023-02-01T17:45:51;6.03;;;2.85;;
21927;SDS011;11128;51.096;17.190;2023-02-01T17:50:55;7.90;;;3.33;;
21927;SDS011;11128;51.096;17.190;2023-02-01T17:55:59;9.45;;;3.50;;
21927;SDS011;11128;51.096;17.190;2023-02-01T18:01:01;5.97;;;3.08;;
21927;SDS011;11128;51.096;17.190;2023-02-01T18:06:02;8.38;;;3.63;;
21927;SDS011;11128;51.096;17.190;2023-02-01T18:11:04;9.23;;;3.40;;
21927;SDS011;11128;51.096;17.190;2023-02-01T18:16:20;9.23;;;3.72;;
21927;SDS011;11128;51.096;17.190;2023-02-01T18:21:27;6.82;;;2.70;;
21927;SDS011;11128;51.096;17.190;2023-02-01T18:26:37;9.57;;;2.35;;
21927;SDS011;11128;51.096;17.190;2023-02-01T18:31:45;5.38;;;3.60;;
21927;SDS011;11128;51.096;17.190;2023-02-01T18:36:49;4.55;;;2.50;;
21927;SDS011;11128;51.096;17.190;2023-02-01T18:41:51;4.05;;;2.10;;
21927;SDS011;11128;51.096;17.190;2023-02-01T18:46:52;3.65;;;1.77;;
21927;SDS011;11128;51.096;17.190;2023-02-01T18:51:53;6.85;;;1.90;;
21927;SDS011;11128;51.096;17.190;2023-02-01T18:56:54;5.43;;;2.10;;
21927;SDS011;11128;51.096;17.190;2023-02-01T19:01:56;4.53;;;2.13;;
21927;SDS011;11128;51.096;17.190;2023-02-01T19:06:57;6.68;;;3.00;;
21927;SDS011;11128;51.096;17.190;2023-02-01T19:11:58;6.53;;;2.70;;
21927;SDS011;11128;51.096;17.190;2023-02-01T19:16:59;6.72;;;3.13;;
21927;SDS011;11128;51.096;17.190;2023-02-01T19:22:01;4.38;;;2.50;;
21927;SDS011;11128;51.096;17.190;2023-02-01T19:27:03;5.10;;;2.60;;
21927;SDS011;11128;51.096;17.190;2023-02-01T19:32:05;8.07;;;3.20;;
21927;SDS011;11128;51.096;17.190;2023-02-01T19:37:06;7.03;;;3.10;;
21927;SDS011;11128;51.096;17.190;2023-02-01T19:42:08;4.18;;;2.20;;
21927;SDS011;11128;51.096;17.190;2023-02-01T19:47:09;4.50;;;2.85;;
21927;SDS011;11128;51.096;17.190;2023-02-01T19:52:12;5.70;;;2.70;;
21927;SDS011;11128;51.096;17.190;2023-02-01T19:57:13;4.07;;;2.30;;
21927;SDS011;11128;51.096;17.190;2023-02-01T20:02:14;2.75;;;1.67;;
21927;SDS011;11128;51.096;17.190;2023-02-01T20:07:16;3.78;;;1.20;;
21927;SDS011;11128;51.096;17.190;2023-02-01T20:12:17;2.38;;;1.38;;
21927;SDS011;11128;51.096;17.190;2023-02-01T20:17:19;2.05;;;1.60;;
21927;SDS011;11128;51.096;17.190;2023-02-01T20:22:20;3.17;;;1.42;;
21927;SDS011;11128;51.096;17.190;2023-02-01T20:27:22;4.97;;;2.63;;
21927;SDS011;11128;51.096;17.190;2023-02-01T20:32:23;2.38;;;1.55;;
21927;SDS011;11128;51.096;17.190;2023-02-01T20:37:25;2.88;;;1.55;;
21927;SDS011;11128;51.096;17.190;2023-02-01T20:42:26;2.80;;;1.20;;
21927;SDS011;11128;51.096;17.190;2023-02-01T20:47:28;3.15;;;1.48;;
21927;SDS011;11128;51.096;17.190;2023-02-01T20:52:29;4.25;;;1.15;;
21927;SDS011;11128;51.096;17.190;2023-02-01T20:57:30;1.30;;;1.20;;
21927;SDS011;11128;51.096;17.190;2023-02-01T21:02:32;2.35;;;1.77;;
21927;SDS011;11128;51.096;17.190;2023-02-01T21:07:33;5.25;;;2.30;;
21927;SDS011;11128;51.096;17.190;2023-02-01T21:12:35;5.03;;;2.70;;
21927;SDS011;11128;51.096;17.190;2023-02-01T21:17:37;6.32;;;3.10;;
21927;SDS011;11128;51.096;17.190;2023-02-01T21:22:40;6.80;;;3.08;;
21927;SDS011;11128;51.096;17.190;2023-02-01T21:27:41;6.43;;;3.83;;
21927;SDS011;11128;51.096;17.190;2023-02-01T21:32:43;3.17;;;2.20;;
21927;SDS011;11128;51.096;17.190;2023-02-01T21:37:44;3.70;;;2.00;;
21927;SDS011;11128;51.096;17.190;2023-02-01T21:42:45;2.97;;;2.30;;
21927;SDS011;11128;51.096;17.190;2023-02-01T21:47:47;3.60;;;2.15;;
21927;SDS011;11128;51.096;17.190;2023-02-01T21:52:48;6.80;;;2.55;;
21927;SDS011;11128;51.096;17.190;2023-02-01T21:57:50;2.50;;;1.70;;
21927;SDS011;11128;51.096;17.190;2023-02-01T22:02:51;3.53;;;2.20;;
21927;SDS011;11128;51.096;17.190;2023-02-01T22:07:53;2.40;;;1.70;;
21927;SDS011;11128;51.096;17.190;2023-02-01T22:12:54;2.97;;;1.50;;
21927;SDS011;11128;51.096;17.190;2023-02-01T22:17:56;4.07;;;1.95;;
21927;SDS011;11128;51.096;17.190;2023-02-01T22:22:57;2.35;;;1.63;;
21927;SDS011;11128;51.096;17.190;2023-02-01T22:27:58;3.47;;;1.83;;
21927;SDS011;11128;51.096;17.190;2023-02-01T22:32:59;3.20;;;1.88;;
21927;SDS011;11128;51.096;17.190;2023-02-01T22:38:00;3.88;;;1.77;;
21927;SDS011;11128;51.096;17.190;2023-02-01T22:43:02;8.80;;;2.35;;
21927;SDS011;11128;51.096;17.190;2023-02-01T22:48:03;4.10;;;2.17;;
21927;SDS011;11128;51.096;17.190;2023-02-01T22:53:05;4.82;;;1.98;;
21927;SDS011;11128;51.096;17.190;2023-02-01T22:58:06;4.30;;;2.20;;
21927;SDS011;11128;51.096;17.190;2023-02-01T23:03:07;5.68;;;2.00;;
21927;SDS011;11128;51.096;17.190;2023-02-01T23:08:09;2.97;;;1.52;;
21927;SDS011;11128;51.096;17.190;2023-02-01T23:13:10;7.97;;;2.25;;
21927;SDS011;11128;51.096;17.190;2023-02-01T23:18:11;7.53;;;2.22;;
21927;SDS011;11128;51.096;17.190;2023-02-01T23:23:12;8.40;;;2.30;;
21927;SDS011;11128;51.096;17.190;2023-02-01T23:28:13;4.78;;;2.17;;
21927;SDS011;11128;51.096;17.190;2023-02-01T23:33:15;9.68;;;2.38;;
21927;SDS011;11128;51.096;17.190;2023-02-01T23:38:17;9.95;;;2.42;;
21927;SDS011;11128;51.096;17.190;2023-02-01T23:43:18;7.45;;;2.33;;
21927;SDS011;11128;51.096;17.190;2023-02-01T23:48:38;5.13;;;2.70;;
21927;SDS011;11128;51.096;17.190;2023-02-01T23:53:39;7.13;;;2.30;;
21927;SDS011;11128;51.096;17.190;2023-02-01T23:58:41;6.10;;;2.60;;
